sensor_id;sensor_type;location;lat;lon;timestamp;temperature;humidity
36186;DHT22;22228;53.222;7.446;2023-04-15T00:02:20;6.10;99.90
36186;DHT22;22228;53.222;7.446;2023-04-15T00:04:41;6.10;99.90
36186;DHT22;22228;53.222;7.446;2023-04-15T00:07:01;6.10;99.90
36186;DHT22;22228;53.222;7.446;2023-04-15T00:09:22;6.10;99.90
36186;DHT22;22228;53.222;7.446;2023-04-15T00:11:42;6.00;99.90
36186;DHT22;22228;53.222;7.446;2023-04-15T00:14:03;6.00;99.90
36186;DHT22;22228;53.222;7.446;2023-04-15T03:01:23;4.30;99.90
36186;DHT22;22228;53.222;7.446;2023-04-15T03:03:44;4.30;99.90
36186;DHT22;22228;53.222;7.446;2023-04-15T03:06:05;4.30;99.90
36186;DHT22;22228;53.222;7.446;2023-04-15T03:08:27;4.20;99.90
36186;DHT22;22228;53.222;7.446;2023-04-15T03:10:49;4.20;99.90
36186;DHT22;22228;53.222;7.446;2023-04-15T03:13:11;4.10;99.90
36186;DHT22;22228;53.222;7.446;2023-04-15T03:15:32;4.10;99.90
36186;DHT22;22228;53.222;7.446;2023-04-15T03:17:55;4.10;99.90
36186;DHT22;22228;53.222;7.446;2023-04-15T03:20:15;4.10;99.90
36186;DHT22;22228;53.222;7.446;2023-04-15T03:22:36;4.10;99.90
36186;DHT22;22228;53.222;7.446;2023-04-15T03:24:57;4.10;99.90
36186;DHT22;22228;53.222;7.446;2023-04-15T03:27:18;4.10;99.90
36186;DHT22;22228;53.222;7.446;2023-04-15T03:29:39;4.10;99.90
36186;DHT22;22228;53.222;7.446;2023-04-15T03:32:00;4.10;99.90
36186;DHT22;22228;53.222;7.446;2023-04-15T03:34:26;4.10;99.90
36186;DHT22;22228;53.222;7.446;2023-04-15T03:36:46;4.00;99.90
36186;DHT22;22228;53.222;7.446;2023-04-15T03:39:07;4.00;99.90
36186;DHT22;22228;53.222;7.446;2023-04-15T03:41:27;3.90;99.90
36186;DHT22;22228;53.222;7.446;2023-04-15T03:43:48;3.90;99.90
36186;DHT22;22228;53.222;7.446;2023-04-15T03:46:10;3.90;99.90
36186;DHT22;22228;53.222;7.446;2023-04-15T03:48:30;4.00;99.90
36186;DHT22;22228;53.222;7.446;2023-04-15T03:50:52;3.90;99.90
36186;DHT22;22228;53.222;7.446;2023-04-15T03:53:12;3.90;99.90
36186;DHT22;22228;53.222;7.446;2023-04-15T03:55:32;3.90;99.90
36186;DHT22;22228;53.222;7.446;2023-04-15T03:57:53;3.90;99.90
36186;DHT22;22228;53.222;7.446;2023-04-15T04:00:14;3.90;99.90
36186;DHT22;22228;53.222;7.446;2023-04-15T04:02:34;3.90;99.90
36186;DHT22;22228;53.222;7.446;2023-04-15T04:04:55;3.90;99.90
36186;DHT22;22228;53.222;7.446;2023-04-15T04:07:17;3.90;99.90
36186;DHT22;22228;53.222;7.446;2023-04-15T04:09:37;3.90;99.90
36186;DHT22;22228;53.222;7.446;2023-04-15T04:11:59;3.80;99.90
36186;DHT22;22228;53.222;7.446;2023-04-15T04:14:20;3.80;99.90
36186;DHT22;22228;53.222;7.446;2023-04-15T04:16:47;3.80;99.90
36186;DHT22;22228;53.222;7.446;2023-04-15T04:19:08;3.90;99.90
36186;DHT22;22228;53.222;7.446;2023-04-15T04:21:28;3.90;99.90
36186;DHT22;22228;53.222;7.446;2023-04-15T04:23:50;4.00;99.90
36186;DHT22;22228;53.222;7.446;2023-04-15T04:26:10;4.10;99.90
36186;DHT22;22228;53.222;7.446;2023-04-15T04:28:31;4.20;99.90
36186;DHT22;22228;53.222;7.446;2023-04-15T04:30:51;4.20;99.90
36186;DHT22;22228;53.222;7.446;2023-04-15T04:33:12;4.30;99.90
36186;DHT22;22228;53.222;7.446;2023-04-15T04:35:32;4.30;99.90
36186;DHT22;22228;53.222;7.446;2023-04-15T04:37:55;4.30;99.90
36186;DHT22;22228;53.222;7.446;2023-04-15T04:40:17;4.30;99.90
36186;DHT22;22228;53.222;7.446;2023-04-15T04:42:38;4.30;99.90
36186;DHT22;22228;53.222;7.446;2023-04-15T04:44:59;4.30;99.90
36186;DHT22;22228;53.222;7.446;2023-04-15T04:47:20;4.30;99.90
36186;DHT22;22228;53.222;7.446;2023-04-15T04:49:40;4.30;99.90
36186;DHT22;22228;53.222;7.446;2023-04-15T04:52:01;4.30;99.90
36186;DHT22;22228;53.222;7.446;2023-04-15T04:54:21;4.30;99.90
36186;DHT22;22228;53.222;7.446;2023-04-15T04:56:43;4.30;99.90
36186;DHT22;22228;53.222;7.446;2023-04-15T04:59:03;4.30;99.90
36186;DHT22;22228;53.222;7.446;2023-04-15T05:01:24;4.30;99.90
36186;DHT22;22228;53.222;7.446;2023-04-15T05:03:45;4.30;99.90
36186;DHT22;22228;53.222;7.446;2023-04-15T05:06:06;4.30;99.90
36186;DHT22;22228;53.222;7.446;2023-04-15T05:08:26;4.30;99.90
36186;DHT22;22228;53.222;7.446;2023-04-15T05:10:47;4.40;99.90
36186;DHT22;22228;53.222;7.446;2023-04-15T05:13:08;4.50;99.90
36186;DHT22;22228;53.222;7.446;2023-04-15T05:15:29;4.60;99.90
36186;DHT22;22228;53.222;7.446;2023-04-15T05:17:50;4.60;99.90
36186;DHT22;22228;53.222;7.446;2023-04-15T05:20:11;4.70;99.90
36186;DHT22;22228;53.222;7.446;2023-04-15T05:22:32;4.90;99.90
36186;DHT22;22228;53.222;7.446;2023-04-15T05:24:52;5.00;99.90
36186;DHT22;22228;53.222;7.446;2023-04-15T05:27:12;5.10;99.90
36186;DHT22;22228;53.222;7.446;2023-04-15T05:29:34;5.20;99.90
36186;DHT22;22228;53.222;7.446;2023-04-15T05:31:55;5.30;99.90
36186;DHT22;22228;53.222;7.446;2023-04-15T05:34:15;5.40;99.90
36186;DHT22;22228;53.222;7.446;2023-04-15T05:36:36;5.50;99.90
36186;DHT22;22228;53.222;7.446;2023-04-15T05:38:56;5.50;99.90
36186;DHT22;22228;53.222;7.446;2023-04-15T05:41:16;5.50;99.90
36186;DHT22;22228;53.222;7.446;2023-04-15T05:43:37;5.60;99.90
36186;DHT22;22228;53.222;7.446;2023-04-15T05:45:59;5.60;99.90
36186;DHT22;22228;53.222;7.446;2023-04-15T05:48:19;5.70;99.90
36186;DHT22;22228;53.222;7.446;2023-04-15T05:50:40;5.80;99.90
36186;DHT22;22228;53.222;7.446;2023-04-15T05:53:00;5.80;99.90
36186;DHT22;22228;53.222;7.446;2023-04-15T05:55:21;5.80;99.90
36186;DHT22;22228;53.222;7.446;2023-04-15T05:57:41;5.90;99.90
36186;DHT22;22228;53.222;7.446;2023-04-15T06:00:02;6.00;99.90
36186;DHT22;22228;53.222;7.446;2023-04-15T06:02:30;6.10;99.90
36186;DHT22;22228;53.222;7.446;2023-04-15T06:04:50;6.20;99.90
36186;DHT22;22228;53.222;7.446;2023-04-15T06:07:11;6.20;99.90
36186;DHT22;22228;53.222;7.446;2023-04-15T06:09:31;6.30;99.90
36186;DHT22;22228;53.222;7.446;2023-04-15T06:11:52;6.40;99.90
36186;DHT22;22228;53.222;7.446;2023-04-15T06:14:12;6.50;99.90
36186;DHT22;22228;53.222;7.446;2023-04-15T06:16:33;6.50;99.90
36186;DHT22;22228;53.222;7.446;2023-04-15T06:18:56;6.60;99.90
36186;DHT22;22228;53.222;7.446;2023-04-15T06:21:16;6.70;99.90
36186;DHT22;22228;53.222;7.446;2023-04-15T06:23:37;6.80;99.90
36186;DHT22;22228;53.222;7.446;2023-04-15T06:25:59;6.80;99.90
36186;DHT22;22228;53.222;7.446;2023-04-15T06:28:19;6.90;99.90
36186;DHT22;22228;53.222;7.446;2023-04-15T06:30:40;7.10;99.90
36186;DHT22;22228;53.222;7.446;2023-04-15T06:33:00;7.10;99.90
36186;DHT22;22228;53.222;7.446;2023-04-15T06:35:24;7.20;99.90
36186;DHT22;22228;53.222;7.446;2023-04-15T06:37:45;7.30;99.90
36186;DHT22;22228;53.222;7.446;2023-04-15T06:40:07;7.40;99.90
36186;DHT22;22228;53.222;7.446;2023-04-15T06:42:28;7.50;99.90
36186;DHT22;22228;53.222;7.446;2023-04-15T06:44:48;7.60;99.90
36186;DHT22;22228;53.222;7.446;2023-04-15T06:47:09;7.70;99.90
36186;DHT22;22228;53.222;7.446;2023-04-15T06:49:30;7.80;99.90
36186;DHT22;22228;53.222;7.446;2023-04-15T06:51:53;7.80;99.90
36186;DHT22;22228;53.222;7.446;2023-04-15T06:54:13;7.90;99.90
36186;DHT22;22228;53.222;7.446;2023-04-15T06:56:34;8.00;99.90
36186;DHT22;22228;53.222;7.446;2023-04-15T06:58:54;8.00;99.90
36186;DHT22;22228;53.222;7.446;2023-04-15T07:01:14;8.10;99.90
36186;DHT22;22228;53.222;7.446;2023-04-15T07:03:35;8.20;99.90
36186;DHT22;22228;53.222;7.446;2023-04-15T07:05:56;8.20;99.90
36186;DHT22;22228;53.222;7.446;2023-04-15T07:08:18;8.30;99.90
36186;DHT22;22228;53.222;7.446;2023-04-15T07:10:38;8.40;99.90
36186;DHT22;22228;53.222;7.446;2023-04-15T07:12:59;8.30;99.90
36186;DHT22;22228;53.222;7.446;2023-04-15T07:15:19;8.40;99.90
36186;DHT22;22228;53.222;7.446;2023-04-15T07:17:40;8.40;99.90
36186;DHT22;22228;53.222;7.446;2023-04-15T07:20:01;8.40;99.90
36186;DHT22;22228;53.222;7.446;2023-04-15T07:22:22;8.50;99.90
36186;DHT22;22228;53.222;7.446;2023-04-15T07:24:45;8.50;99.90
36186;DHT22;22228;53.222;7.446;2023-04-15T07:27:06;8.50;99.90
36186;DHT22;22228;53.222;7.446;2023-04-15T07:29:26;8.60;99.90
36186;DHT22;22228;53.222;7.446;2023-04-15T07:31:47;8.60;99.90
36186;DHT22;22228;53.222;7.446;2023-04-15T07:34:07;8.60;99.90
36186;DHT22;22228;53.222;7.446;2023-04-15T07:36:29;8.70;99.90
36186;DHT22;22228;53.222;7.446;2023-04-15T07:38:49;8.70;99.90
36186;DHT22;22228;53.222;7.446;2023-04-15T07:41:11;8.70;99.90
36186;DHT22;22228;53.222;7.446;2023-04-15T07:43:31;8.80;99.90
36186;DHT22;22228;53.222;7.446;2023-04-15T07:45:52;8.80;99.90
36186;DHT22;22228;53.222;7.446;2023-04-15T07:48:13;8.90;99.90
36186;DHT22;22228;53.222;7.446;2023-04-15T07:50:33;9.00;99.90
36186;DHT22;22228;53.222;7.446;2023-04-15T07:52:54;9.00;99.90
36186;DHT22;22228;53.222;7.446;2023-04-15T07:55:15;9.00;99.90
36186;DHT22;22228;53.222;7.446;2023-04-15T07:57:39;9.10;99.90
36186;DHT22;22228;53.222;7.446;2023-04-15T08:00:00;9.20;99.90
36186;DHT22;22228;53.222;7.446;2023-04-15T08:02:32;9.30;99.90
36186;DHT22;22228;53.222;7.446;2023-04-15T08:04:52;9.40;99.90
36186;DHT22;22228;53.222;7.446;2023-04-15T08:07:13;9.50;99.90
36186;DHT22;22228;53.222;7.446;2023-04-15T08:09:34;9.60;99.90
36186;DHT22;22228;53.222;7.446;2023-04-15T08:11:54;9.60;99.90
36186;DHT22;22228;53.222;7.446;2023-04-15T08:14:17;9.70;99.90
36186;DHT22;22228;53.222;7.446;2023-04-15T08:16:37;9.80;99.90
36186;DHT22;22228;53.222;7.446;2023-04-15T08:18:58;9.70;99.90
36186;DHT22;22228;53.222;7.446;2023-04-15T08:21:19;9.70;99.90
36186;DHT22;22228;53.222;7.446;2023-04-15T08:23:39;9.80;99.90
36186;DHT22;22228;53.222;7.446;2023-04-15T08:26:00;9.80;99.90
36186;DHT22;22228;53.222;7.446;2023-04-15T08:28:21;9.80;99.90
36186;DHT22;22228;53.222;7.446;2023-04-15T08:30:43;9.80;99.90
36186;DHT22;22228;53.222;7.446;2023-04-15T08:33:03;9.80;99.90
36186;DHT22;22228;53.222;7.446;2023-04-15T08:35:24;9.70;99.90
36186;DHT22;22228;53.222;7.446;2023-04-15T08:37:44;9.70;99.90
36186;DHT22;22228;53.222;7.446;2023-04-15T08:40:06;9.70;99.90
36186;DHT22;22228;53.222;7.446;2023-04-15T08:42:30;9.70;99.90
36186;DHT22;22228;53.222;7.446;2023-04-15T08:44:52;9.70;99.90
36186;DHT22;22228;53.222;7.446;2023-04-15T08:47:13;9.60;99.90
36186;DHT22;22228;53.222;7.446;2023-04-15T08:49:38;9.60;99.90
36186;DHT22;22228;53.222;7.446;2023-04-15T08:51:59;9.40;99.90
36186;DHT22;22228;53.222;7.446;2023-04-15T08:54:19;9.40;99.90
36186;DHT22;22228;53.222;7.446;2023-04-15T08:56:41;9.40;99.90
36186;DHT22;22228;53.222;7.446;2023-04-15T08:59:01;9.50;99.90
36186;DHT22;22228;53.222;7.446;2023-04-15T09:01:23;9.60;99.90
36186;DHT22;22228;53.222;7.446;2023-04-15T09:03:47;9.50;99.90
36186;DHT22;22228;53.222;7.446;2023-04-15T09:06:08;9.50;99.90
36186;DHT22;22228;53.222;7.446;2023-04-15T09:08:29;9.50;99.90
36186;DHT22;22228;53.222;7.446;2023-04-15T09:10:49;9.50;99.90
36186;DHT22;22228;53.222;7.446;2023-04-15T09:13:10;9.60;99.90
36186;DHT22;22228;53.222;7.446;2023-04-15T09:15:24;9.50;99.90
36186;DHT22;22228;53.222;7.446;2023-04-15T09:17:45;9.50;99.90
36186;DHT22;22228;53.222;7.446;2023-04-15T09:20:09;9.50;99.90
36186;DHT22;22228;53.222;7.446;2023-04-15T09:22:31;9.60;99.90
36186;DHT22;22228;53.222;7.446;2023-04-15T09:24:51;9.60;99.90
36186;DHT22;22228;53.222;7.446;2023-04-15T09:27:15;9.60;99.90
36186;DHT22;22228;53.222;7.446;2023-04-15T09:29:36;9.60;99.90
36186;DHT22;22228;53.222;7.446;2023-04-15T09:31:57;9.60;99.90
36186;DHT22;22228;53.222;7.446;2023-04-15T09:34:34;9.60;99.90
36186;DHT22;22228;53.222;7.446;2023-04-15T09:36:59;9.70;99.90
36186;DHT22;22228;53.222;7.446;2023-04-15T09:39:20;9.60;99.90
36186;DHT22;22228;53.222;7.446;2023-04-15T09:41:40;9.70;99.90
36186;DHT22;22228;53.222;7.446;2023-04-15T09:44:02;9.80;99.90
36186;DHT22;22228;53.222;7.446;2023-04-15T09:46:40;9.80;99.90
36186;DHT22;22228;53.222;7.446;2023-04-15T09:49:07;9.80;99.90
36186;DHT22;22228;53.222;7.446;2023-04-15T09:51:33;9.80;99.90
36186;DHT22;22228;53.222;7.446;2023-04-15T09:53:55;9.80;99.90
36186;DHT22;22228;53.222;7.446;2023-04-15T09:56:16;9.70;99.90
36186;DHT22;22228;53.222;7.446;2023-04-15T09:58:37;9.70;99.90
36186;DHT22;22228;53.222;7.446;2023-04-15T10:00:58;9.70;99.90
36186;DHT22;22228;53.222;7.446;2023-04-15T10:03:21;9.80;99.90
36186;DHT22;22228;53.222;7.446;2023-04-15T10:05:42;9.80;99.90
36186;DHT22;22228;53.222;7.446;2023-04-15T10:08:03;9.90;99.90
36186;DHT22;22228;53.222;7.446;2023-04-15T10:10:26;9.80;99.90
36186;DHT22;22228;53.222;7.446;2023-04-15T10:12:47;9.80;99.90
36186;DHT22;22228;53.222;7.446;2023-04-15T10:15:13;9.70;99.90
36186;DHT22;22228;53.222;7.446;2023-04-15T10:17:35;9.70;99.90
36186;DHT22;22228;53.222;7.446;2023-04-15T10:19:56;9.60;99.90
36186;DHT22;22228;53.222;7.446;2023-04-15T10:22:16;9.60;99.90
36186;DHT22;22228;53.222;7.446;2023-04-15T10:24:38;9.50;99.90
36186;DHT22;22228;53.222;7.446;2023-04-15T10:27:02;9.50;99.90
36186;DHT22;22228;53.222;7.446;2023-04-15T10:29:24;9.40;99.90
36186;DHT22;22228;53.222;7.446;2023-04-15T10:31:45;9.40;99.90
36186;DHT22;22228;53.222;7.446;2023-04-15T10:34:07;9.40;99.90
36186;DHT22;22228;53.222;7.446;2023-04-15T10:36:29;9.30;99.90
36186;DHT22;22228;53.222;7.446;2023-04-15T10:38:49;9.30;99.90
36186;DHT22;22228;53.222;7.446;2023-04-15T10:41:15;9.20;99.90
36186;DHT22;22228;53.222;7.446;2023-04-15T10:43:37;9.20;99.90
36186;DHT22;22228;53.222;7.446;2023-04-15T10:45:57;9.10;99.90
36186;DHT22;22228;53.222;7.446;2023-04-15T10:48:18;9.00;99.90
36186;DHT22;22228;53.222;7.446;2023-04-15T10:50:38;9.00;99.90
36186;DHT22;22228;53.222;7.446;2023-04-15T10:53:01;9.00;99.90
36186;DHT22;22228;53.222;7.446;2023-04-15T10:55:24;9.00;99.90
36186;DHT22;22228;53.222;7.446;2023-04-15T10:57:44;9.00;99.90
36186;DHT22;22228;53.222;7.446;2023-04-15T11:00:14;9.00;99.90
36186;DHT22;22228;53.222;7.446;2023-04-15T11:02:40;8.90;99.90
36186;DHT22;22228;53.222;7.446;2023-04-15T11:05:05;9.00;99.90
36186;DHT22;22228;53.222;7.446;2023-04-15T11:07:53;9.10;99.90
36186;DHT22;22228;53.222;7.446;2023-04-15T11:13:26;9.10;99.90
36186;DHT22;22228;53.222;7.446;2023-04-15T11:15:49;9.10;99.90
36186;DHT22;22228;53.222;7.446;2023-04-15T11:18:11;9.10;99.90
36186;DHT22;22228;53.222;7.446;2023-04-15T11:20:31;9.00;99.90
36186;DHT22;22228;53.222;7.446;2023-04-15T11:22:53;9.00;99.90
36186;DHT22;22228;53.222;7.446;2023-04-15T11:25:21;9.10;99.90
36186;DHT22;22228;53.222;7.446;2023-04-15T11:27:42;9.10;99.90
36186;DHT22;22228;53.222;7.446;2023-04-15T11:30:17;9.10;99.90
36186;DHT22;22228;53.222;7.446;2023-04-15T11:32:42;9.10;99.90
36186;DHT22;22228;53.222;7.446;2023-04-15T11:35:03;9.20;99.90
36186;DHT22;22228;53.222;7.446;2023-04-15T11:37:27;9.20;99.90
36186;DHT22;22228;53.222;7.446;2023-04-15T11:39:48;9.20;99.90
36186;DHT22;22228;53.222;7.446;2023-04-15T11:42:15;9.20;99.90
36186;DHT22;22228;53.222;7.446;2023-04-15T11:44:36;9.20;99.90
36186;DHT22;22228;53.222;7.446;2023-04-15T11:46:56;9.20;99.90
36186;DHT22;22228;53.222;7.446;2023-04-15T11:49:27;9.10;99.90
36186;DHT22;22228;53.222;7.446;2023-04-15T11:51:48;9.10;99.90
36186;DHT22;22228;53.222;7.446;2023-04-15T11:54:17;9.10;99.90
36186;DHT22;22228;53.222;7.446;2023-04-15T11:56:38;9.00;99.90
36186;DHT22;22228;53.222;7.446;2023-04-15T11:58:59;8.90;99.90
36186;DHT22;22228;53.222;7.446;2023-04-15T12:01:19;8.90;99.90
36186;DHT22;22228;53.222;7.446;2023-04-15T12:03:41;8.80;99.90
36186;DHT22;22228;53.222;7.446;2023-04-15T12:06:09;8.80;99.90
36186;DHT22;22228;53.222;7.446;2023-04-15T12:08:59;8.70;99.90
36186;DHT22;22228;53.222;7.446;2023-04-15T12:11:20;8.70;99.90
36186;DHT22;22228;53.222;7.446;2023-04-15T12:13:43;8.70;99.90
36186;DHT22;22228;53.222;7.446;2023-04-15T12:16:03;8.60;99.90
36186;DHT22;22228;53.222;7.446;2023-04-15T12:18:24;8.60;99.90
36186;DHT22;22228;53.222;7.446;2023-04-15T12:20:44;8.60;99.90
36186;DHT22;22228;53.222;7.446;2023-04-15T12:23:06;8.50;99.90
36186;DHT22;22228;53.222;7.446;2023-04-15T12:25:33;8.50;99.90
36186;DHT22;22228;53.222;7.446;2023-04-15T12:27:54;8.50;99.90
36186;DHT22;22228;53.222;7.446;2023-04-15T12:30:14;8.50;99.90
36186;DHT22;22228;53.222;7.446;2023-04-15T12:32:35;8.50;99.90
36186;DHT22;22228;53.222;7.446;2023-04-15T12:34:55;8.50;99.90
36186;DHT22;22228;53.222;7.446;2023-04-15T12:37:16;8.50;99.90
36186;DHT22;22228;53.222;7.446;2023-04-15T12:39:38;8.50;99.90
36186;DHT22;22228;53.222;7.446;2023-04-15T12:41:59;8.50;99.90
36186;DHT22;22228;53.222;7.446;2023-04-15T12:44:22;8.50;99.90
36186;DHT22;22228;53.222;7.446;2023-04-15T12:46:43;8.50;99.90
36186;DHT22;22228;53.222;7.446;2023-04-15T12:49:04;8.50;99.90
36186;DHT22;22228;53.222;7.446;2023-04-15T12:51:24;8.50;99.90
36186;DHT22;22228;53.222;7.446;2023-04-15T12:53:45;8.50;99.90
36186;DHT22;22228;53.222;7.446;2023-04-15T12:56:07;8.50;99.90
36186;DHT22;22228;53.222;7.446;2023-04-15T12:58:28;8.50;99.90
36186;DHT22;22228;53.222;7.446;2023-04-15T13:00:49;8.50;99.90
36186;DHT22;22228;53.222;7.446;2023-04-15T13:03:09;8.50;99.90
36186;DHT22;22228;53.222;7.446;2023-04-15T13:05:30;8.50;99.90
36186;DHT22;22228;53.222;7.446;2023-04-15T13:07:50;8.50;99.90
36186;DHT22;22228;53.222;7.446;2023-04-15T13:10:11;8.50;99.90
36186;DHT22;22228;53.222;7.446;2023-04-15T13:12:33;8.50;99.90
36186;DHT22;22228;53.222;7.446;2023-04-15T13:14:55;8.50;99.90
36186;DHT22;22228;53.222;7.446;2023-04-15T13:17:15;8.50;99.90
36186;DHT22;22228;53.222;7.446;2023-04-15T13:19:38;8.50;99.90
36186;DHT22;22228;53.222;7.446;2023-04-15T13:21:58;8.50;99.90
36186;DHT22;22228;53.222;7.446;2023-04-15T13:24:19;8.50;99.90
36186;DHT22;22228;53.222;7.446;2023-04-15T13:26:39;8.50;99.90
36186;DHT22;22228;53.222;7.446;2023-04-15T13:29:01;8.50;99.90
36186;DHT22;22228;53.222;7.446;2023-04-15T13:31:21;8.50;99.90
36186;DHT22;22228;53.222;7.446;2023-04-15T13:33:41;8.50;99.90
36186;DHT22;22228;53.222;7.446;2023-04-15T13:36:02;8.50;99.90
36186;DHT22;22228;53.222;7.446;2023-04-15T13:38:23;8.50;99.90
36186;DHT22;22228;53.222;7.446;2023-04-15T13:40:44;8.50;99.90
36186;DHT22;22228;53.222;7.446;2023-04-15T13:43:04;8.50;99.90
36186;DHT22;22228;53.222;7.446;2023-04-15T13:45:26;8.50;99.90
36186;DHT22;22228;53.222;7.446;2023-04-15T13:47:47;8.50;99.90
36186;DHT22;22228;53.222;7.446;2023-04-15T13:50:08;8.50;99.90
36186;DHT22;22228;53.222;7.446;2023-04-15T13:52:29;8.50;99.90
36186;DHT22;22228;53.222;7.446;2023-04-15T13:54:49;8.50;99.90
36186;DHT22;22228;53.222;7.446;2023-04-15T13:57:10;8.50;99.90
36186;DHT22;22228;53.222;7.446;2023-04-15T13:59:31;8.50;99.90
36186;DHT22;22228;53.222;7.446;2023-04-15T14:01:53;8.50;99.90
36186;DHT22;22228;53.222;7.446;2023-04-15T14:04:14;8.50;99.90
36186;DHT22;22228;53.222;7.446;2023-04-15T14:06:34;8.50;99.90
36186;DHT22;22228;53.222;7.446;2023-04-15T14:08:55;8.50;99.90
36186;DHT22;22228;53.222;7.446;2023-04-15T14:11:15;8.50;99.90
36186;DHT22;22228;53.222;7.446;2023-04-15T14:13:36;8.50;99.90
36186;DHT22;22228;53.222;7.446;2023-04-15T14:15:57;8.40;99.90
36186;DHT22;22228;53.222;7.446;2023-04-15T14:18:19;8.50;99.90
36186;DHT22;22228;53.222;7.446;2023-04-15T14:20:39;8.50;99.90
36186;DHT22;22228;53.222;7.446;2023-04-15T14:23:03;8.50;99.90
36186;DHT22;22228;53.222;7.446;2023-04-15T14:25:24;8.50;99.90
36186;DHT22;22228;53.222;7.446;2023-04-15T14:27:46;8.50;99.90
36186;DHT22;22228;53.222;7.446;2023-04-15T14:30:07;8.50;99.90
36186;DHT22;22228;53.222;7.446;2023-04-15T14:32:28;8.50;99.90
36186;DHT22;22228;53.222;7.446;2023-04-15T14:34:50;8.50;99.90
36186;DHT22;22228;53.222;7.446;2023-04-15T14:37:10;8.50;99.90
36186;DHT22;22228;53.222;7.446;2023-04-15T14:39:31;8.50;99.90
36186;DHT22;22228;53.222;7.446;2023-04-15T14:41:51;8.50;99.90
36186;DHT22;22228;53.222;7.446;2023-04-15T14:44:12;8.50;99.90
36186;DHT22;22228;53.222;7.446;2023-04-15T14:46:32;8.50;99.90
36186;DHT22;22228;53.222;7.446;2023-04-15T14:48:52;8.50;99.90
36186;DHT22;22228;53.222;7.446;2023-04-15T14:51:15;8.50;99.90
36186;DHT22;22228;53.222;7.446;2023-04-15T14:53:35;8.50;99.90
36186;DHT22;22228;53.222;7.446;2023-04-15T14:55:56;8.50;99.90
36186;DHT22;22228;53.222;7.446;2023-04-15T14:58:16;8.60;99.90
36186;DHT22;22228;53.222;7.446;2023-04-15T15:00:37;8.60;99.90
36186;DHT22;22228;53.222;7.446;2023-04-15T15:03:00;8.60;99.90
36186;DHT22;22228;53.222;7.446;2023-04-15T15:05:21;8.60;99.90
36186;DHT22;22228;53.222;7.446;2023-04-15T15:07:42;8.60;99.90
36186;DHT22;22228;53.222;7.446;2023-04-15T15:10:04;8.60;99.90
36186;DHT22;22228;53.222;7.446;2023-04-15T15:12:24;8.60;99.90
36186;DHT22;22228;53.222;7.446;2023-04-15T15:14:45;8.60;99.90
36186;DHT22;22228;53.222;7.446;2023-04-15T15:17:05;8.70;99.90
36186;DHT22;22228;53.222;7.446;2023-04-15T15:19:26;8.70;99.90
36186;DHT22;22228;53.222;7.446;2023-04-15T15:21:46;8.70;99.90
36186;DHT22;22228;53.222;7.446;2023-04-15T15:24:08;8.60;99.90
36186;DHT22;22228;53.222;7.446;2023-04-15T15:26:28;8.70;99.90
36186;DHT22;22228;53.222;7.446;2023-04-15T15:28:49;8.70;99.90
36186;DHT22;22228;53.222;7.446;2023-04-15T15:31:09;8.70;99.90
36186;DHT22;22228;53.222;7.446;2023-04-15T15:33:30;8.80;99.90
36186;DHT22;22228;53.222;7.446;2023-04-15T15:35:51;8.70;99.90
36186;DHT22;22228;53.222;7.446;2023-04-15T15:38:11;8.80;99.90
36186;DHT22;22228;53.222;7.446;2023-04-15T15:40:33;8.80;99.90
36186;DHT22;22228;53.222;7.446;2023-04-15T15:42:53;8.80;99.90
36186;DHT22;22228;53.222;7.446;2023-04-15T15:45:14;8.80;99.90
36186;DHT22;22228;53.222;7.446;2023-04-15T15:47:34;8.90;99.90
36186;DHT22;22228;53.222;7.446;2023-04-15T15:49:55;8.80;99.90
36186;DHT22;22228;53.222;7.446;2023-04-15T15:52:16;8.80;99.90
36186;DHT22;22228;53.222;7.446;2023-04-15T15:54:36;8.90;99.90
36186;DHT22;22228;53.222;7.446;2023-04-15T15:56:58;8.90;99.90
36186;DHT22;22228;53.222;7.446;2023-04-15T15:59:19;8.90;99.90
36186;DHT22;22228;53.222;7.446;2023-04-15T16:01:40;8.90;99.90
36186;DHT22;22228;53.222;7.446;2023-04-15T16:04:00;8.90;99.90
36186;DHT22;22228;53.222;7.446;2023-04-15T16:06:21;8.90;99.90
36186;DHT22;22228;53.222;7.446;2023-04-15T16:08:42;8.90;99.90
36186;DHT22;22228;53.222;7.446;2023-04-15T16:11:02;8.90;99.90
36186;DHT22;22228;53.222;7.446;2023-04-15T16:13:24;8.90;99.90
36186;DHT22;22228;53.222;7.446;2023-04-15T16:15:45;9.00;99.90
36186;DHT22;22228;53.222;7.446;2023-04-15T16:18:05;9.00;99.90
36186;DHT22;22228;53.222;7.446;2023-04-15T16:20:26;9.00;99.90
36186;DHT22;22228;53.222;7.446;2023-04-15T16:22:46;9.00;99.90
36186;DHT22;22228;53.222;7.446;2023-04-15T16:25:08;9.00;99.90
36186;DHT22;22228;53.222;7.446;2023-04-15T16:27:28;9.10;99.90
36186;DHT22;22228;53.222;7.446;2023-04-15T16:29:50;9.00;99.90
36186;DHT22;22228;53.222;7.446;2023-04-15T16:32:10;9.00;99.90
36186;DHT22;22228;53.222;7.446;2023-04-15T16:34:31;9.00;99.90
36186;DHT22;22228;53.222;7.446;2023-04-15T16:36:51;9.00;99.90
36186;DHT22;22228;53.222;7.446;2023-04-15T16:39:12;9.00;99.90
36186;DHT22;22228;53.222;7.446;2023-04-15T16:41:33;9.00;99.90
36186;DHT22;22228;53.222;7.446;2023-04-15T16:43:55;9.10;99.90
36186;DHT22;22228;53.222;7.446;2023-04-15T16:46:17;9.10;99.90
36186;DHT22;22228;53.222;7.446;2023-04-15T16:48:37;9.10;99.90
36186;DHT22;22228;53.222;7.446;2023-04-15T16:50:58;9.10;99.90
36186;DHT22;22228;53.222;7.446;2023-04-15T16:53:18;9.20;99.90
36186;DHT22;22228;53.222;7.446;2023-04-15T16:55:39;9.10;99.90
36186;DHT22;22228;53.222;7.446;2023-04-15T16:58:00;9.10;99.90
36186;DHT22;22228;53.222;7.446;2023-04-15T17:00:20;9.10;99.90
36186;DHT22;22228;53.222;7.446;2023-04-15T17:02:42;9.10;99.90
36186;DHT22;22228;53.222;7.446;2023-04-15T17:05:03;9.10;99.90
36186;DHT22;22228;53.222;7.446;2023-04-15T17:07:24;9.10;99.90
36186;DHT22;22228;53.222;7.446;2023-04-15T17:09:44;9.10;99.90
36186;DHT22;22228;53.222;7.446;2023-04-15T17:12:05;9.00;99.90
36186;DHT22;22228;53.222;7.446;2023-04-15T17:14:26;9.10;99.90
36186;DHT22;22228;53.222;7.446;2023-04-15T17:16:46;9.00;99.90
36186;DHT22;22228;53.222;7.446;2023-04-15T17:19:08;9.00;99.90
36186;DHT22;22228;53.222;7.446;2023-04-15T17:21:29;9.00;99.90
36186;DHT22;22228;53.222;7.446;2023-04-15T17:23:50;9.00;99.90
36186;DHT22;22228;53.222;7.446;2023-04-15T17:26:10;9.00;99.90
36186;DHT22;22228;53.222;7.446;2023-04-15T17:28:30;9.00;99.90
36186;DHT22;22228;53.222;7.446;2023-04-15T17:30:51;9.10;99.90
36186;DHT22;22228;53.222;7.446;2023-04-15T17:33:11;9.10;99.90
36186;DHT22;22228;53.222;7.446;2023-04-15T17:35:33;9.00;99.90
36186;DHT22;22228;53.222;7.446;2023-04-15T17:37:54;9.00;99.90
36186;DHT22;22228;53.222;7.446;2023-04-15T17:40:14;9.00;99.90
36186;DHT22;22228;53.222;7.446;2023-04-15T17:42:35;9.00;99.90
36186;DHT22;22228;53.222;7.446;2023-04-15T17:44:55;9.00;99.90
36186;DHT22;22228;53.222;7.446;2023-04-15T17:47:16;9.00;99.90
36186;DHT22;22228;53.222;7.446;2023-04-15T17:49:36;8.90;99.90
36186;DHT22;22228;53.222;7.446;2023-04-15T17:51:58;8.90;99.90
36186;DHT22;22228;53.222;7.446;2023-04-15T17:54:18;8.90;99.90
36186;DHT22;22228;53.222;7.446;2023-04-15T17:56:38;8.90;99.90